South Weymouth, Massachusetts
Current Conditions -  °F | °C
As of 4:53 AM on Thursday 23 Oct 2014 (Local Time) from KOWD Reporting Station
Moderate Rain Moderate Rain  
Wind Chill: 50°   Ceiling: 5500
Heat Index: 50°   Visibility: 4mi
Dew Point: 48°   Wind: 13mph
Humidity: 93%   Direction: 10°N
Pressure: 29.67"   Gusts: 24mph
Location:  42.1666°N, 70.9521°W
Report Text: KOWD 230853Z AUTO 01011G21KT 4SM RA BR FEW027 BKN055 OVC075 10/09 A2967 RMK AO2 PK WND 36027/0835 SLP048 P0030 60095 T01000089 56039
Loading
Personal Weather Stations






























Interactive Weather Map New forecast layout! Learn more

10-Day Weather Forecast

Advertisements
Track Severe Weather on mobile